Time;durP1;ratioP1;P1;durP2;ratioP2;P2;SDS_P1;SDS_P2;PMS_P1;PMS_P2;Temp;Humidity;BMP_temperature;BMP_pressure;BME280_temperature;BME280_humidity;BME280_pressure;Samples;Min_cycle;Max_cycle;Signal;HPM_P1;HPM_P2
2022/05/21 00:00:31;;;;;;;16.10;15.50;;;;;;;;;;5092327;28;20189;-69
2022/05/21 00:02:59;;;;;;;16.02;15.43;;;;;;;;;;5092591;28;20197;-69
2022/05/21 00:05:27;;;;;;;15.77;15.18;;;;;;;;;;5092601;28;20202;-69
2022/05/21 00:07:56;;;;;;;16.27;15.60;;;;;;;;;;5092330;28;20672;-69
2022/05/21 00:10:23;;;;;;;15.90;15.30;;;;;;;;;;5092508;28;20193;-70
2022/05/21 00:12:50;;;;;;;15.50;14.90;;;;;;;;;;5092267;28;20324;-70
2022/05/21 00:15:18;;;;;;;15.55;14.95;;;;;;;;;;5092511;28;20284;-69
2022/05/21 00:17:45;;;;;;;15.60;15.00;;;;;;;;;;5092404;28;20297;-69
2022/05/21 00:22:52;;;;;;;15.95;15.35;;;;;;;;;;5091777;28;20259;-69
2022/05/21 00:25:21;;;;;;;15.70;15.10;;;;;;;;;;5092861;28;20194;-70
2022/05/21 00:27:47;;;;;;;15.68;15.07;;;;;;;;;;5092282;28;20216;-69
2022/05/21 00:30:14;;;;;;;15.55;14.95;;;;;;;;;;5092322;28;20200;-70
2022/05/21 00:32:41;;;;;;;16.00;15.40;;;;;;;;;;5092030;28;20203;-70
2022/05/21 00:35:08;;;;;;;15.80;15.20;;;;;;;;;;5092253;28;20281;-69
2022/05/21 00:37:35;;;;;;;15.68;15.07;;;;;;;;;;5091946;28;20693;-72
2022/05/21 00:40:02;;;;;;;15.65;15.05;;;;;;;;;;5095052;28;20666;-69
2022/05/21 00:42:30;;;;;;;16.00;15.30;;;;;;;;;;5095974;28;20200;-69
2022/05/21 00:44:57;;;;;;;16.40;15.70;;;;;;;;;;5096008;28;20288;-71
2022/05/21 00:47:23;;;;;;;15.80;15.20;;;;;;;;;;5095931;28;20289;-69
2022/05/21 00:49:50;;;;;;;15.95;15.35;;;;;;;;;;5095759;28;20605;-69
2022/05/21 00:52:18;;;;;;;15.55;14.95;;;;;;;;;;5095893;28;20193;-69
2022/05/21 00:54:47;;;;;;;15.73;15.13;;;;;;;;;;5096093;28;20194;-70
2022/05/21 00:57:16;;;;;;;16.35;15.65;;;;;;;;;;5096251;28;20200;-70
2022/05/21 00:59:51;;;;;;;15.70;15.10;;;;;;;;;;5095853;28;20236;-69
2022/05/21 01:02:20;;;;;;;15.98;15.38;;;;;;;;;;5095980;28;20190;-69
2022/05/21 01:04:47;;;;;;;16.00;15.40;;;;;;;;;;5095563;28;20190;-69
2022/05/21 01:07:15;;;;;;;15.57;14.98;;;;;;;;;;5095845;28;20206;-69
2022/05/21 01:09:44;;;;;;;15.93;15.33;;;;;;;;;;5095677;28;20231;-70
2022/05/21 01:12:11;;;;;;;15.50;14.90;;;;;;;;;;5095111;28;20715;-71
2022/05/21 01:14:39;;;;;;;15.83;15.23;;;;;;;;;;5095408;28;20282;-70
2022/05/21 01:17:08;;;;;;;15.80;15.20;;;;;;;;;;5095340;28;20726;-70
2022/05/21 01:19:49;;;;;;;16.00;15.40;;;;;;;;;;5095629;28;20204;-69
2022/05/21 01:22:16;;;;;;;15.77;15.13;;;;;;;;;;5095127;28;20281;-69
2022/05/21 01:24:44;;;;;;;15.93;15.33;;;;;;;;;;5095206;28;20665;-68
2022/05/21 01:27:11;;;;;;;16.00;15.40;;;;;;;;;;5095331;28;20280;-70
2022/05/21 01:29:37;;;;;;;16.30;15.60;;;;;;;;;;5095014;28;20259;-70
2022/05/21 01:32:05;;;;;;;16.20;15.50;;;;;;;;;;5095360;28;20198;-69
2022/05/21 01:34:32;;;;;;;16.73;16.03;;;;;;;;;;5095257;28;20198;-70
2022/05/21 01:36:58;;;;;;;16.15;15.45;;;;;;;;;;5094996;28;20570;-69
2022/05/21 01:39:25;;;;;;;15.97;15.33;;;;;;;;;;5095191;28;20235;-70
2022/05/21 01:41:53;;;;;;;16.27;15.57;;;;;;;;;;5095448;28;20279;-70
2022/05/21 01:47:04;;;;;;;16.07;15.37;;;;;;;;;;5094960;28;20193;-69
2022/05/21 01:49:31;;;;;;;16.20;15.50;;;;;;;;;;5094610;28;20332;-69
2022/05/21 01:51:57;;;;;;;15.63;15.02;;;;;;;;;;5094238;28;20200;-71
2022/05/21 01:54:24;;;;;;;16.00;15.40;;;;;;;;;;5094617;28;20625;-69
2022/05/21 01:56:51;;;;;;;15.80;15.20;;;;;;;;;;5095179;28;20266;-69
2022/05/21 01:59:19;;;;;;;16.07;15.43;;;;;;;;;;5094534;28;20190;-69
2022/05/21 02:01:46;;;;;;;15.40;14.80;;;;;;;;;;5094470;28;20678;-69
2022/05/21 02:04:13;;;;;;;15.63;15.02;;;;;;;;;;5094491;28;20255;-69
2022/05/21 02:06:39;;;;;;;16.10;15.40;;;;;;;;;;5094671;28;20229;-70
2022/05/21 02:09:06;;;;;;;16.17;15.47;;;;;;;;;;5094238;28;20320;-68
2022/05/21 02:11:33;;;;;;;15.80;15.20;;;;;;;;;;5094130;28;20731;-69
2022/05/21 02:13:59;;;;;;;15.57;14.97;;;;;;;;;;5094530;28;20196;-68
2022/05/21 02:16:28;;;;;;;15.80;15.20;;;;;;;;;;5094523;28;20196;-68
2022/05/21 02:18:54;;;;;;;16.60;15.90;;;;;;;;;;5094217;28;20237;-69
2022/05/21 02:21:21;;;;;;;15.90;15.30;;;;;;;;;;5094483;28;20252;-69
2022/05/21 02:23:48;;;;;;;15.80;15.20;;;;;;;;;;5094101;28;20196;-70
2022/05/21 02:26:17;;;;;;;15.60;15.00;;;;;;;;;;5094568;28;20196;-69
2022/05/21 02:28:43;;;;;;;15.17;14.57;;;;;;;;;;5093948;28;20226;-69
2022/05/21 02:31:10;;;;;;;15.45;14.85;;;;;;;;;;5093911;28;20286;-70
2022/05/21 02:33:38;;;;;;;15.30;14.70;;;;;;;;;;5093907;28;20198;-70
2022/05/21 02:36:05;;;;;;;15.67;15.07;;;;;;;;;;5094173;28;20283;-71
2022/05/21 02:41:17;;;;;;;15.40;14.80;;;;;;;;;;5094091;28;20181;-69
2022/05/21 02:43:43;;;;;;;15.40;14.80;;;;;;;;;;5093968;28;20225;-69
2022/05/21 02:46:10;;;;;;;15.73;15.13;;;;;;;;;;5093659;28;20190;-69
2022/05/21 02:48:39;;;;;;;15.27;14.67;;;;;;;;;;5093757;28;20213;-69
2022/05/21 02:51:06;;;;;;;15.60;15.00;;;;;;;;;;5093834;28;20660;-69
2022/05/21 02:53:32;;;;;;;16.00;15.30;;;;;;;;;;5093751;28;20197;-69
2022/05/21 02:56:03;;;;;;;15.87;15.17;;;;;;;;;;5093444;28;20193;-69
2022/05/21 02:58:30;;;;;;;15.10;14.50;;;;;;;;;;5093478;28;20186;-70
2022/05/21 03:00:57;;;;;;;15.17;14.57;;;;;;;;;;5093323;28;20190;-69
2022/05/21 03:03:23;;;;;;;15.30;14.70;;;;;;;;;;5092306;28;20750;-69
2022/05/21 03:05:52;;;;;;;15.07;14.47;;;;;;;;;;5093587;28;20218;-69
2022/05/21 03:11:03;;;;;;;15.03;14.43;;;;;;;;;;5093866;28;20196;-70
2022/05/21 03:13:30;;;;;;;15.47;14.87;;;;;;;;;;5093737;28;20192;-69
2022/05/21 03:15:57;;;;;;;15.30;14.70;;;;;;;;;;5093345;28;20227;-71
2022/05/21 03:18:24;;;;;;;14.57;14.07;;;;;;;;;;5093024;28;20282;-69
2022/05/21 03:20:52;;;;;;;15.00;14.40;;;;;;;;;;5093194;28;20189;-70
2022/05/21 03:23:19;;;;;;;14.80;14.30;;;;;;;;;;5092935;28;20193;-69
2022/05/21 03:25:45;;;;;;;15.33;14.73;;;;;;;;;;5092924;28;20674;-70
2022/05/21 03:28:14;;;;;;;14.70;14.20;;;;;;;;;;5093372;28;20276;-69
2022/05/21 03:30:41;;;;;;;15.00;14.40;;;;;;;;;;5093055;28;20240;-69
2022/05/21 03:33:08;;;;;;;14.97;14.40;;;;;;;;;;5092965;28;20284;-69
2022/05/21 03:35:34;;;;;;;15.37;14.77;;;;;;;;;;5092694;28;20200;-69
2022/05/21 03:38:02;;;;;;;15.40;14.80;;;;;;;;;;5092690;28;20682;-69
2022/05/21 03:40:30;;;;;;;15.50;14.90;;;;;;;;;;5092837;28;20678;-69
2022/05/21 03:42:57;;;;;;;16.10;15.40;;;;;;;;;;5092612;28;20193;-69
2022/05/21 03:45:23;;;;;;;16.40;15.70;;;;;;;;;;5092823;28;20193;-69
2022/05/21 03:47:51;;;;;;;16.42;15.73;;;;;;;;;;5092760;28;20686;-69
2022/05/21 03:50:19;;;;;;;16.52;15.82;;;;;;;;;;5092639;28;20225;-69
2022/05/21 03:52:46;;;;;;;16.60;15.90;;;;;;;;;;5092685;28;20670;-69
2022/05/21 03:55:14;;;;;;;16.48;15.77;;;;;;;;;;5092457;28;20281;-70
2022/05/21 03:57:41;;;;;;;15.88;15.18;;;;;;;;;;5092360;28;20193;-69
2022/05/21 04:00:08;;;;;;;15.73;15.13;;;;;;;;;;5092383;28;20197;-69
2022/05/21 04:02:36;;;;;;;16.83;16.13;;;;;;;;;;5092516;28;20681;-69
2022/05/21 04:05:03;;;;;;;16.50;15.90;;;;;;;;;;5092567;28;20204;-69
2022/05/21 04:07:30;;;;;;;16.55;15.85;;;;;;;;;;5092235;28;20189;-68
2022/05/21 04:09:56;;;;;;;16.95;16.25;;;;;;;;;;5092121;28;20312;-69
2022/05/21 04:12:25;;;;;;;16.60;15.90;;;;;;;;;;5092044;28;20320;-69
2022/05/21 04:14:51;;;;;;;16.55;15.85;;;;;;;;;;5092044;28;20190;-69
2022/05/21 04:17:18;;;;;;;17.05;16.35;;;;;;;;;;5093034;28;20197;-72
2022/05/21 04:19:45;;;;;;;16.52;15.82;;;;;;;;;;5092088;28;20575;-69
2022/05/21 04:22:11;;;;;;;16.45;15.75;;;;;;;;;;5092372;28;20272;-68
2022/05/21 04:24:38;;;;;;;16.33;15.63;;;;;;;;;;5092391;28;20196;-68
2022/05/21 04:27:07;;;;;;;16.67;15.98;;;;;;;;;;5091993;28;20280;-68
2022/05/21 04:29:35;;;;;;;16.45;15.82;;;;;;;;;;5091969;28;20625;-69
2022/05/21 04:32:02;;;;;;;15.95;15.35;;;;;;;;;;5092356;28;20272;-68
2022/05/21 04:34:29;;;;;;;16.33;15.70;;;;;;;;;;5092240;28;20727;-69
2022/05/21 04:36:56;;;;;;;16.73;16.02;;;;;;;;;;5091980;28;20200;-69
2022/05/21 04:39:22;;;;;;;15.77;15.18;;;;;;;;;;5091944;28;20285;-69
2022/05/21 04:41:49;;;;;;;15.43;14.82;;;;;;;;;;5092245;28;20276;-68
2022/05/21 04:44:16;;;;;;;15.57;14.98;;;;;;;;;;5092218;28;20638;-69
2022/05/21 04:46:44;;;;;;;15.35;14.75;;;;;;;;;;5092157;28;20281;-72
2022/05/21 04:49:11;;;;;;;15.70;15.10;;;;;;;;;;5092042;28;20386;-72
2022/05/21 04:51:39;;;;;;;15.68;15.07;;;;;;;;;;5091781;28;20198;-68
2022/05/21 04:54:05;;;;;;;15.88;15.27;;;;;;;;;;5092144;28;20285;-68
2022/05/21 04:56:34;;;;;;;15.88;15.27;;;;;;;;;;5091783;28;20663;-68
2022/05/21 04:59:00;;;;;;;15.88;15.27;;;;;;;;;;5091787;28;20652;-68
2022/05/21 05:01:30;;;;;;;15.68;15.07;;;;;;;;;;5092045;28;20194;-68
2022/05/21 05:03:58;;;;;;;15.90;15.30;;;;;;;;;;5092007;28;20204;-72
2022/05/21 05:06:25;;;;;;;15.90;15.30;;;;;;;;;;5091680;28;20582;-68
2022/05/21 05:08:52;;;;;;;15.95;15.35;;;;;;;;;;5091922;28;20576;-68
2022/05/21 05:11:18;;;;;;;15.70;15.10;;;;;;;;;;5091429;28;20710;-73
2022/05/21 05:13:45;;;;;;;15.60;15.00;;;;;;;;;;5091919;28;20186;-68
2022/05/21 05:16:12;;;;;;;15.00;14.50;;;;;;;;;;5091901;28;20202;-68
2022/05/21 05:18:39;;;;;;;15.20;14.70;;;;;;;;;;5091613;28;20194;-73
2022/05/21 05:21:07;;;;;;;15.25;14.70;;;;;;;;;;5091536;28;20651;-73
2022/05/21 05:23:33;;;;;;;16.30;15.70;;;;;;;;;;5091486;28;20204;-68
2022/05/21 05:26:00;;;;;;;15.00;14.50;;;;;;;;;;5092410;28;20198;-73
2022/05/21 05:28:27;;;;;;;15.32;14.73;;;;;;;;;;5095497;28;20198;-70
2022/05/21 05:30:54;;;;;;;15.32;14.73;;;;;;;;;;5095362;28;20332;-68
2022/05/21 05:33:21;;;;;;;15.63;15.02;;;;;;;;;;5095354;28;20255;-73
2022/05/21 05:35:48;;;;;;;15.70;15.10;;;;;;;;;;5095853;28;20739;-67
2022/05/21 05:38:16;;;;;;;15.48;14.88;;;;;;;;;;5095246;28;20209;-69
2022/05/21 05:40:46;;;;;;;15.90;15.30;;;;;;;;;;5095269;28;20204;-75
2022/05/21 05:43:13;;;;;;;15.05;14.55;;;;;;;;;;5094905;28;20232;-73
2022/05/21 05:45:40;;;;;;;15.15;14.65;;;;;;;;;;5095142;28;20272;-68
2022/05/21 05:48:06;;;;;;;15.20;14.70;;;;;;;;;;5095122;28;20293;-73
2022/05/21 05:50:33;;;;;;;14.85;14.35;;;;;;;;;;5094965;28;20286;-74
2022/05/21 05:53:01;;;;;;;15.18;14.68;;;;;;;;;;5095013;28;20285;-74
2022/05/21 05:55:29;;;;;;;15.25;14.75;;;;;;;;;;5094913;28;20221;-67
2022/05/21 05:57:55;;;;;;;15.05;14.55;;;;;;;;;;5094834;28;20571;-67
2022/05/21 06:00:21;;;;;;;15.05;14.55;;;;;;;;;;5094888;28;20272;-68
2022/05/21 06:03:01;;;;;;;15.43;14.90;;;;;;;;;;5094751;28;20194;-73
2022/05/21 06:05:29;;;;;;;15.07;14.57;;;;;;;;;;5094870;28;20196;-68
2022/05/21 06:07:57;;;;;;;15.10;14.60;;;;;;;;;;5094638;28;20201;-73
2022/05/21 06:10:25;;;;;;;16.02;15.43;;;;;;;;;;5094289;28;20674;-68
2022/05/21 06:12:53;;;;;;;16.00;15.40;;;;;;;;;;5094341;28;20261;-68
2022/05/21 06:15:20;;;;;;;16.20;15.60;;;;;;;;;;5094306;28;20711;-68
2022/05/21 06:17:49;;;;;;;15.90;15.30;;;;;;;;;;5094221;28;20717;-68
2022/05/21 06:20:17;;;;;;;15.95;15.35;;;;;;;;;;5094169;28;20194;-68
2022/05/21 06:22:44;;;;;;;15.88;15.27;;;;;;;;;;5094451;28;20197;-67
2022/05/21 06:25:11;;;;;;;16.05;15.45;;;;;;;;;;5094058;28;20281;-73
2022/05/21 06:27:38;;;;;;;15.57;14.98;;;;;;;;;;5094043;28;20229;-68
2022/05/21 06:30:07;;;;;;;15.65;15.05;;;;;;;;;;5094979;28;20218;-67
2022/05/21 06:32:34;;;;;;;16.40;15.80;;;;;;;;;;5093930;28;20233;-70
2022/05/21 06:35:03;;;;;;;15.52;14.93;;;;;;;;;;5094461;28;20189;-72
2022/05/21 06:37:30;;;;;;;15.73;15.13;;;;;;;;;;5093946;28;20373;-67
2022/05/21 06:39:56;;;;;;;16.15;15.55;;;;;;;;;;5094053;28;20289;-68
2022/05/21 06:42:23;;;;;;;16.20;15.60;;;;;;;;;;5094294;28;20197;-74
2022/05/21 06:44:51;;;;;;;16.17;15.57;;;;;;;;;;5093703;28;20202;-67
2022/05/21 06:47:19;;;;;;;15.80;15.20;;;;;;;;;;5093959;28;20284;-67
2022/05/21 06:49:46;;;;;;;15.65;15.05;;;;;;;;;;5093819;28;20609;-72
2022/05/21 06:52:13;;;;;;;15.70;15.10;;;;;;;;;;5093876;28;20197;-68
2022/05/21 06:54:39;;;;;;;15.63;15.02;;;;;;;;;;5093776;28;20623;-74
2022/05/21 06:57:08;;;;;;;15.43;14.82;;;;;;;;;;5093754;28;20229;-68
2022/05/21 06:59:35;;;;;;;15.13;14.52;;;;;;;;;;5093360;28;20561;-68
2022/05/21 07:02:01;;;;;;;15.95;15.25;;;;;;;;;;5093705;28;20200;-73
2022/05/21 07:09:56;;;;;;;14.32;13.82;;;;;;;;;;5093840;28;20228;-67
2022/05/21 07:12:23;;;;;;;14.90;14.30;;;;;;;;;;5093135;28;20221;-74
2022/05/21 07:14:50;;;;;;;15.23;14.63;;;;;;;;;;5093406;28;20202;-71
2022/05/21 07:17:17;;;;;;;15.20;14.60;;;;;;;;;;5093141;28;20251;-73
2022/05/21 07:19:45;;;;;;;15.13;14.52;;;;;;;;;;5093070;28;20255;-73
2022/05/21 07:22:12;;;;;;;15.30;14.70;;;;;;;;;;5092995;28;20193;-73
2022/05/21 07:24:39;;;;;;;14.88;14.27;;;;;;;;;;5093292;28;20193;-74
2022/05/21 07:27:06;;;;;;;14.85;14.25;;;;;;;;;;5093139;28;20284;-68
2022/05/21 07:29:32;;;;;;;15.00;14.40;;;;;;;;;;5092837;28;20277;-73
2022/05/21 07:31:59;;;;;;;14.65;14.05;;;;;;;;;;5093082;28;20295;-75
2022/05/21 07:34:27;;;;;;;14.60;14.07;;;;;;;;;;5093073;28;20190;-72
2022/05/21 07:36:55;;;;;;;14.73;14.15;;;;;;;;;;5093069;28;20236;-78
2022/05/21 07:39:21;;;;;;;14.23;13.73;;;;;;;;;;5092693;28;20277;-76
2022/05/21 07:41:48;;;;;;;14.30;13.80;;;;;;;;;;5092971;28;20198;-73
2022/05/21 07:44:15;;;;;;;14.68;14.18;;;;;;;;;;5092820;28;20580;-69
2022/05/21 07:46:42;;;;;;;14.98;14.38;;;;;;;;;;5092856;28;20243;-72
2022/05/21 07:49:09;;;;;;;15.02;14.43;;;;;;;;;;5092287;28;20640;-68
2022/05/21 07:51:36;;;;;;;14.32;13.82;;;;;;;;;;5092675;28;20232;-72
2022/05/21 07:54:04;;;;;;;14.50;13.90;;;;;;;;;;5092794;28;20193;-77
2022/05/21 07:56:32;;;;;;;14.68;14.07;;;;;;;;;;5092461;28;20285;-69
2022/05/21 07:58:58;;;;;;;14.40;13.90;;;;;;;;;;5092411;28;20190;-67
2022/05/21 08:01:25;;;;;;;14.32;13.82;;;;;;;;;;5092665;28;20276;-73
2022/05/21 08:03:52;;;;;;;14.30;13.80;;;;;;;;;;5092676;28;20285;-75
2022/05/21 08:06:19;;;;;;;14.00;13.50;;;;;;;;;;5092612;28;20716;-75
2022/05/21 08:08:45;;;;;;;14.05;13.55;;;;;;;;;;5092224;28;20229;-69
2022/05/21 08:11:14;;;;;;;14.40;13.90;;;;;;;;;;5092080;28;20226;-72
2022/05/21 08:13:41;;;;;;;14.00;13.50;;;;;;;;;;5092211;28;20733;-69
2022/05/21 08:16:07;;;;;;;14.32;13.82;;;;;;;;;;5092438;28;20193;-70
2022/05/21 08:18:34;;;;;;;14.57;14.07;;;;;;;;;;5092175;28;20229;-72
2022/05/21 08:21:01;;;;;;;15.57;14.80;;;;;;;;;;5092050;28;20743;-78
2022/05/21 08:28:57;;;;;;;13.98;13.48;;;;;;;;;;5092398;28;20192;-71
2022/05/21 08:31:24;;;;;;;14.30;13.80;;;;;;;;;;5091916;28;20758;-74
2022/05/21 08:33:51;;;;;;;14.40;13.90;;;;;;;;;;5092367;28;20252;-78
2022/05/21 08:36:19;;;;;;;14.80;14.27;;;;;;;;;;5091941;28;20288;-68
2022/05/21 08:38:46;;;;;;;14.25;13.75;;;;;;;;;;5092261;28;20201;-70
2022/05/21 08:41:18;;;;;;;14.30;13.80;;;;;;;;;;5092239;28;20198;-71
2022/05/21 08:43:50;;;;;;;14.30;13.80;;;;;;;;;;5092176;28;20727;-72
2022/05/21 08:46:24;;;;;;;14.35;13.85;;;;;;;;;;5091918;28;20269;-67
2022/05/21 08:48:55;;;;;;;14.38;13.88;;;;;;;;;;5091944;28;20731;-69
2022/05/21 08:51:24;;;;;;;14.55;14.05;;;;;;;;;;5092124;28;20218;-74
2022/05/21 08:53:51;;;;;;;14.55;14.05;;;;;;;;;;5091828;28;20647;-76
2022/05/21 08:56:18;;;;;;;14.07;13.57;;;;;;;;;;5091795;28;20193;-71
2022/05/21 08:58:48;;;;;;;14.30;13.80;;;;;;;;;;5092103;28;20204;-67
2022/05/21 09:01:16;;;;;;;14.20;13.70;;;;;;;;;;5093175;28;20200;-74
2022/05/21 09:03:45;;;;;;;14.18;13.68;;;;;;;;;;5095977;28;20227;-67
2022/05/21 09:06:13;;;;;;;14.40;13.90;;;;;;;;;;5095608;28;20683;-73
2022/05/21 09:08:43;;;;;;;14.40;13.90;;;;;;;;;;5095858;28;20276;-76
2022/05/21 09:11:13;;;;;;;14.30;13.80;;;;;;;;;;5095321;28;20210;-69
2022/05/21 09:13:41;;;;;;;14.30;13.80;;;;;;;;;;5095515;28;20186;-69
2022/05/21 09:18:55;;;;;;;14.40;13.90;;;;;;;;;;5095763;28;20185;-76
2022/05/21 09:21:23;;;;;;;14.13;13.63;;;;;;;;;;5095367;28;20229;-74
2022/05/21 09:23:51;;;;;;;14.20;13.70;;;;;;;;;;5095570;28;20228;-72
2022/05/21 09:26:18;;;;;;;14.40;13.90;;;;;;;;;;5095797;28;20194;-68
2022/05/21 09:28:45;;;;;;;14.75;14.25;;;;;;;;;;5095204;28;20240;-72
2022/05/21 09:31:12;;;;;;;14.43;13.93;;;;;;;;;;5095034;28;20317;-76
2022/05/21 09:33:40;;;;;;;14.63;14.13;;;;;;;;;;5095108;28;20205;-69
2022/05/21 09:36:09;;;;;;;14.13;13.63;;;;;;;;;;5095371;28;20225;-69
2022/05/21 09:38:49;;;;;;;14.43;13.93;;;;;;;;;;5095313;28;20631;-73
2022/05/21 09:41:18;;;;;;;14.45;13.95;;;;;;;;;;5095239;28;20225;-69
2022/05/21 09:46:33;;;;;;;14.45;13.95;;;;;;;;;;5095504;28;20181;-68
2022/05/21 09:49:14;;;;;;;14.18;13.68;;;;;;;;;;5095134;28;20225;-70
2022/05/21 09:51:52;;;;;;;14.30;13.80;;;;;;;;;;5095030;28;20272;-76
2022/05/21 09:54:20;;;;;;;14.50;14.00;;;;;;;;;;5094985;28;20620;-67
2022/05/21 09:56:48;;;;;;;14.32;13.82;;;;;;;;;;5095046;28;20208;-71
2022/05/21 09:59:17;;;;;;;14.27;13.77;;;;;;;;;;5094977;28;20277;-72
2022/05/21 10:01:45;;;;;;;14.07;13.57;;;;;;;;;;5094852;28;20197;-75
2022/05/21 10:04:16;;;;;;;14.23;13.73;;;;;;;;;;5094857;28;20229;-75
2022/05/21 10:06:46;;;;;;;14.35;13.85;;;;;;;;;;5095359;28;20190;-77
2022/05/21 10:12:01;;;;;;;14.70;14.20;;;;;;;;;;5094007;28;20311;-73
2022/05/21 10:14:31;;;;;;;15.00;14.40;;;;;;;;;;5094342;28;20572;-71
2022/05/21 10:16:59;;;;;;;14.30;13.80;;;;;;;;;;5094294;28;20659;-71
2022/05/21 10:19:32;;;;;;;14.68;14.18;;;;;;;;;;5094544;28;20193;-77
2022/05/21 10:22:02;;;;;;;14.52;14.02;;;;;;;;;;5094476;28;20194;-75
2022/05/21 10:24:36;;;;;;;14.40;13.90;;;;;;;;;;5094140;28;20289;-68
2022/05/21 10:27:06;;;;;;;14.25;13.75;;;;;;;;;;5094129;28;20246;-74
2022/05/21 10:29:40;;;;;;;14.38;13.88;;;;;;;;;;5094095;28;20281;-76
2022/05/21 10:32:13;;;;;;;14.60;14.10;;;;;;;;;;5094220;28;20223;-74
2022/05/21 10:34:47;;;;;;;14.38;13.88;;;;;;;;;;5094313;28;20272;-72
2022/05/21 10:37:26;;;;;;;14.70;14.10;;;;;;;;;;5093905;28;20182;-72
2022/05/21 10:40:10;;;;;;;14.40;13.90;;;;;;;;;;5093873;28;20761;-77
2022/05/21 10:42:49;;;;;;;14.52;14.02;;;;;;;;;;5093947;28;20712;-68
2022/05/21 10:45:20;;;;;;;14.35;13.85;;;;;;;;;;5094073;28;20603;-72
2022/05/21 10:48:02;;;;;;;14.27;13.77;;;;;;;;;;5093769;28;20277;-69
2022/05/21 10:50:29;;;;;;;14.43;13.93;;;;;;;;;;5092236;28;20280;-70
2022/05/21 10:53:14;;;;;;;14.57;14.07;;;;;;;;;;5093555;28;20316;-80
2022/05/21 10:55:45;;;;;;;14.57;14.07;;;;;;;;;;5093606;28;20656;-75
2022/05/21 10:58:30;;;;;;;14.32;13.82;;;;;;;;;;5093778;28;20193;-77
2022/05/21 11:01:01;;;;;;;14.70;14.20;;;;;;;;;;5086580;28;20717;-67
2022/05/21 11:03:41;;;;;;;14.50;14.00;;;;;;;;;;5093409;28;20201;-70
2022/05/21 11:06:26;;;;;;;14.48;13.98;;;;;;;;;;5093978;28;20197;-76
2022/05/21 11:09:01;;;;;;;14.43;13.93;;;;;;;;;;5093851;28;20201;-70
2022/05/21 11:11:30;;;;;;;14.52;14.02;;;;;;;;;;5093318;28;20315;-72
2022/05/21 11:14:00;;;;;;;14.63;14.13;;;;;;;;;;5093465;28;20281;-78
2022/05/21 11:16:30;;;;;;;14.57;14.07;;;;;;;;;;5094551;28;20281;-70
2022/05/21 11:19:01;;;;;;;14.63;14.13;;;;;;;;;;5093106;28;20690;-68
2022/05/21 11:21:30;;;;;;;14.73;14.23;;;;;;;;;;5093320;28;20205;-67
2022/05/21 11:24:01;;;;;;;14.90;14.30;;;;;;;;;;5092411;28;20230;-77
2022/05/21 11:26:34;;;;;;;15.40;14.80;;;;;;;;;;5093330;28;20282;-74
2022/05/21 11:29:05;;;;;;;15.32;14.73;;;;;;;;;;5092880;28;20216;-67
2022/05/21 11:37:21;;;;;;;15.40;14.80;;;;;;;;;;5093515;28;20650;-68
2022/05/21 11:39:50;;;;;;;15.13;14.52;;;;;;;;;;5092805;28;20284;-72
2022/05/21 11:42:18;;;;;;;15.02;14.43;;;;;;;;;;5092647;28;20198;-73
2022/05/21 11:44:59;;;;;;;15.23;14.63;;;;;;;;;;5092574;28;20202;-75
2022/05/21 11:47:42;;;;;;;15.13;14.52;;;;;;;;;;5092644;28;20186;-67
2022/05/21 11:50:16;;;;;;;15.30;14.70;;;;;;;;;;5092544;28;20288;-68
2022/05/21 11:52:57;;;;;;;15.25;14.65;;;;;;;;;;5092825;28;20209;-75
2022/05/21 11:55:27;;;;;;;15.32;14.73;;;;;;;;;;5092529;28;20189;-67
2022/05/21 11:57:55;;;;;;;14.73;14.23;;;;;;;;;;5093059;28;20186;-70
2022/05/21 12:00:44;;;;;;;14.88;14.27;;;;;;;;;;5092419;28;20282;-70
2022/05/21 12:03:13;;;;;;;15.23;14.63;;;;;;;;;;5092734;28;20190;-68
2022/05/21 12:05:56;;;;;;;15.23;14.63;;;;;;;;;;5092649;28;20225;-68
2022/05/21 12:08:36;;;;;;;14.93;14.38;;;;;;;;;;5092445;28;20239;-72
2022/05/21 12:11:05;;;;;;;15.10;14.50;;;;;;;;;;5092421;28;20208;-70
2022/05/21 12:13:52;;;;;;;15.00;14.40;;;;;;;;;;5092285;28;20197;-74
2022/05/21 12:16:36;;;;;;;15.40;14.80;;;;;;;;;;5092613;28;20288;-75
2022/05/21 12:19:05;;;;;;;15.27;14.68;;;;;;;;;;5092485;28;20190;-74
2022/05/21 12:21:50;;;;;;;15.20;14.60;;;;;;;;;;5092117;28;20663;-68
2022/05/21 12:24:40;;;;;;;14.98;14.38;;;;;;;;;;5092487;28;20621;-69
2022/05/21 12:27:15;;;;;;;15.15;14.55;;;;;;;;;;5092111;28;20723;-74
2022/05/21 12:29:44;;;;;;;15.15;14.55;;;;;;;;;;5092664;28;20189;-70
2022/05/21 12:32:13;;;;;;;15.25;14.65;;;;;;;;;;5092196;28;20229;-70
2022/05/21 12:35:06;;;;;;;15.40;14.80;;;;;;;;;;5092449;28;20233;-73
2022/05/21 12:37:36;;;;;;;14.95;14.35;;;;;;;;;;5096520;28;20273;-69
2022/05/21 12:40:10;;;;;;;15.52;14.93;;;;;;;;;;5096424;28;20229;-71
2022/05/21 12:42:40;;;;;;;15.88;15.18;;;;;;;;;;5096472;28;20235;-67
2022/05/21 12:45:07;;;;;;;15.40;14.80;;;;;;;;;;5096040;28;20201;-69
2022/05/21 12:47:35;;;;;;;15.43;14.82;;;;;;;;;;5096325;28;20225;-73
2022/05/21 12:50:04;;;;;;;15.38;14.77;;;;;;;;;;5096273;28;20197;-70
2022/05/21 12:52:36;;;;;;;15.55;14.95;;;;;;;;;;5096072;28;20266;-70
2022/05/21 12:55:21;;;;;;;16.20;15.50;;;;;;;;;;5096242;28;20236;-73
2022/05/21 12:57:50;;;;;;;15.48;14.88;;;;;;;;;;5096161;28;20281;-70
2022/05/21 13:00:18;;;;;;;15.65;15.05;;;;;;;;;;5095791;28;20226;-72
2022/05/21 13:02:46;;;;;;;15.63;15.02;;;;;;;;;;5095989;28;20204;-70
2022/05/21 13:05:18;;;;;;;16.00;15.30;;;;;;;;;;5095688;28;20675;-69
2022/05/21 13:07:45;;;;;;;15.52;14.93;;;;;;;;;;5095991;28;20621;-72
2022/05/21 13:10:18;;;;;;;15.80;15.20;;;;;;;;;;5095940;28;20244;-72
2022/05/21 13:12:45;;;;;;;15.52;14.93;;;;;;;;;;5095344;28;20237;-71
2022/05/21 13:15:15;;;;;;;15.15;14.55;;;;;;;;;;5095838;28;20194;-71
2022/05/21 13:17:46;;;;;;;15.20;14.60;;;;;;;;;;5095405;28;20193;-72
2022/05/21 13:20:15;;;;;;;15.40;14.80;;;;;;;;;;5095647;28;20609;-71
2022/05/21 13:23:05;;;;;;;15.55;14.95;;;;;;;;;;5095604;28;20197;-70
2022/05/21 13:25:32;;;;;;;15.20;14.60;;;;;;;;;;5056996;28;20576;-76
2022/05/21 13:27:59;;;;;;;15.30;14.70;;;;;;;;;;5095534;28;20224;-71
2022/05/21 13:30:32;;;;;;;14.82;14.23;;;;;;;;;;5095215;28;20286;-73
2022/05/21 13:32:59;;;;;;;15.05;14.45;;;;;;;;;;5095144;28;20247;-70
2022/05/21 13:35:28;;;;;;;15.57;14.98;;;;;;;;;;5095155;28;20229;-69
2022/05/21 13:37:55;;;;;;;16.48;15.77;;;;;;;;;;5095064;28;20671;-68
2022/05/21 13:40:22;;;;;;;15.68;15.07;;;;;;;;;;5095315;28;20231;-69
2022/05/21 13:42:50;;;;;;;22.73;21.33;;;;;;;;;;5095293;28;20273;-67
2022/05/21 13:45:18;;;;;;;15.43;14.82;;;;;;;;;;5095192;28;20264;-72
2022/05/21 13:47:49;;;;;;;15.52;14.93;;;;;;;;;;5094217;28;20284;-72
2022/05/21 13:50:18;;;;;;;15.35;14.75;;;;;;;;;;5095172;28;20190;-73
2022/05/21 13:52:45;;;;;;;15.50;14.90;;;;;;;;;;5095011;28;20317;-72
2022/05/21 13:55:13;;;;;;;15.40;14.80;;;;;;;;;;5094999;28;20569;-69
2022/05/21 13:57:40;;;;;;;15.70;15.10;;;;;;;;;;5094931;28;20281;-69
2022/05/21 14:00:13;;;;;;;15.52;14.93;;;;;;;;;;5094992;28;20225;-73
2022/05/21 14:02:42;;;;;;;15.50;14.90;;;;;;;;;;5095147;28;20190;-69
2022/05/21 14:05:25;;;;;;;16.17;15.48;;;;;;;;;;5095139;28;20190;-74
2022/05/21 14:07:53;;;;;;;15.50;14.90;;;;;;;;;;5094528;28;20198;-74
2022/05/21 14:10:32;;;;;;;15.65;15.05;;;;;;;;;;5094412;28;20205;-69
2022/05/21 14:12:59;;;;;;;15.77;15.18;;;;;;;;;;5094290;28;20241;-75
2022/05/21 14:15:29;;;;;;;16.20;15.50;;;;;;;;;;5094381;28;20196;-68
2022/05/21 14:17:57;;;;;;;15.73;15.13;;;;;;;;;;5094782;28;20200;-74
2022/05/21 14:20:27;;;;;;;15.65;15.05;;;;;;;;;;5094569;28;20194;-68
2022/05/21 14:22:54;;;;;;;16.60;15.90;;;;;;;;;;5094542;28;20190;-70
2022/05/21 14:25:33;;;;;;;15.63;15.02;;;;;;;;;;5094945;28;20201;-70
2022/05/21 14:28:06;;;;;;;15.70;15.10;;;;;;;;;;5094404;28;20301;-75
2022/05/21 14:30:35;;;;;;;15.55;14.95;;;;;;;;;;5094128;28;20196;-69
2022/05/21 14:33:12;;;;;;;15.70;15.10;;;;;;;;;;5093884;28;20625;-74
2022/05/21 14:35:40;;;;;;;15.63;15.02;;;;;;;;;;5093936;28;20239;-77
2022/05/21 14:38:07;;;;;;;15.35;14.75;;;;;;;;;;5094240;28;20273;-80
2022/05/21 14:40:45;;;;;;;15.85;15.15;;;;;;;;;;5093829;28;20193;-76
2022/05/21 14:43:19;;;;;;;15.50;14.90;;;;;;;;;;5094069;28;20642;-77
2022/05/21 14:45:46;;;;;;;15.50;14.90;;;;;;;;;;5094001;28;20636;-71
2022/05/21 14:48:11;;;;;;;16.05;15.45;;;;;;;;;;5093699;28;20198;-75
2022/05/21 14:53:26;;;;;;;16.00;15.40;;;;;;;;;;5094177;28;20217;-74
2022/05/21 14:55:52;;;;;;;16.38;15.77;;;;;;;;;;5093575;28;20194;-69
2022/05/21 14:58:20;;;;;;;15.77;15.07;;;;;;;;;;5093950;28;20617;-69
2022/05/21 15:00:47;;;;;;;15.77;15.18;;;;;;;;;;5093820;28;20194;-68
2022/05/21 15:03:13;;;;;;;15.30;14.70;;;;;;;;;;5093736;28;20193;-69
2022/05/21 15:05:41;;;;;;;15.50;14.90;;;;;;;;;;5093642;28;20193;-76